createdAt,value
2018-12-13T00:02:22.167Z,13.45
2018-12-13T00:04:50.737Z,10.95
2018-12-13T00:07:19.596Z,11.10
2018-12-13T00:09:49.121Z,12.53
2018-12-13T00:12:17.850Z,10.80
2018-12-13T00:14:47.566Z,11.70
2018-12-13T00:17:16.030Z,11.73
2018-12-13T00:19:45.417Z,10.93
2018-12-13T00:22:13.909Z,10.43
2018-12-13T00:24:42.723Z,11.20
2018-12-13T00:27:11.371Z,11.80
2018-12-13T00:29:39.718Z,11.90
2018-12-13T00:32:08.591Z,14.38
2018-12-13T00:34:37.438Z,11.73
2018-12-13T00:37:07.523Z,11.97
2018-12-13T00:39:37.035Z,10.82
2018-12-13T00:42:05.823Z,11.90
2018-12-13T00:44:34.363Z,12.43
2018-12-13T00:47:02.834Z,11.53
2018-12-13T00:49:32.191Z,12.53
2018-12-13T00:52:00.799Z,11.50
2018-12-13T00:54:29.214Z,12.45
2018-12-13T00:56:58.373Z,13.70
2018-12-13T00:59:27.164Z,12.43
2018-12-13T01:01:55.614Z,13.32
2018-12-13T01:04:24.276Z,11.83
2018-12-13T01:06:53.229Z,12.37
2018-12-13T01:09:22.745Z,11.20
2018-12-13T01:11:51.445Z,12.15
2018-12-13T01:14:19.949Z,12.43
2018-12-13T01:16:48.749Z,14.25
2018-12-13T01:19:23.697Z,11.22
2018-12-13T01:21:52.758Z,11.63
2018-12-13T01:24:21.450Z,13.03
2018-12-13T01:26:49.917Z,12.30
2018-12-13T01:29:18.695Z,10.93
2018-12-13T01:31:47.127Z,12.25
2018-12-13T01:34:15.777Z,12.00
2018-12-13T01:36:44.563Z,11.88
2018-12-13T01:39:13.488Z,11.83
2018-12-13T01:41:42.515Z,12.07
2018-12-13T01:44:11.720Z,13.18
2018-12-13T01:46:40.236Z,12.65
2018-12-13T01:49:08.940Z,11.65
2018-12-13T01:51:37.324Z,12.18
2018-12-13T01:54:05.961Z,13.13
2018-12-13T01:56:34.459Z,12.33
2018-12-13T01:59:02.954Z,11.63
2018-12-13T02:01:31.466Z,11.57
2018-12-13T02:04:00.332Z,13.28
2018-12-13T02:06:29.046Z,11.95
2018-12-13T02:08:57.514Z,13.15
2018-12-13T02:11:26.975Z,12.53
2018-12-13T02:13:55.400Z,12.43
2018-12-13T02:16:24.336Z,13.30
2018-12-13T02:18:53.446Z,12.80
2018-12-13T02:21:22.015Z,14.65
2018-12-13T02:23:50.691Z,13.85
2018-12-13T02:26:19.282Z,12.47
2018-12-13T02:28:47.719Z,15.40
2018-12-13T02:31:16.541Z,14.78
2018-12-13T02:33:45.383Z,13.75
2018-12-13T02:36:14.476Z,13.93
2018-12-13T02:38:43.221Z,13.93
2018-12-13T02:41:12.039Z,12.90
2018-12-13T02:43:40.585Z,13.90
2018-12-13T02:46:09.815Z,12.37
2018-12-13T02:48:38.248Z,14.73
2018-12-13T02:51:06.771Z,12.85
2018-12-13T02:53:35.448Z,13.90
2018-12-13T02:56:04.352Z,17.02
2018-12-13T02:58:33.372Z,15.68
2018-12-13T03:01:02.342Z,17.55
2018-12-13T03:03:30.911Z,16.95
2018-12-13T03:06:00.065Z,14.28
2018-12-13T03:08:28.549Z,15.78
2018-12-13T03:10:57.034Z,14.68
2018-12-13T03:13:26.230Z,15.00
2018-12-13T03:15:54.999Z,15.03
2018-12-13T03:18:24.272Z,15.25
2018-12-13T03:20:52.733Z,13.85
2018-12-13T03:23:21.197Z,14.70
2018-12-13T03:25:51.814Z,16.17
2018-12-13T03:28:20.675Z,16.15
2018-12-13T03:30:49.269Z,16.87
2018-12-13T03:33:18.086Z,15.48
2018-12-13T03:35:47.270Z,13.18
2018-12-13T03:38:15.732Z,19.40
2018-12-13T03:40:44.436Z,17.30
2018-12-13T03:43:13.163Z,15.40
2018-12-13T03:45:42.599Z,17.85
2018-12-13T03:48:11.171Z,16.55
2018-12-13T03:50:40.128Z,17.65
2018-12-13T03:53:08.770Z,16.82
2018-12-13T03:55:37.281Z,18.62
2018-12-13T03:58:06.068Z,16.93
2018-12-13T04:00:35.296Z,18.25
2018-12-13T04:03:03.948Z,17.55
2018-12-13T04:05:33.124Z,17.92
2018-12-13T04:08:01.834Z,17.67
2018-12-13T04:10:30.290Z,17.48
2018-12-13T04:12:58.888Z,17.05
2018-12-13T04:15:27.782Z,15.58
2018-12-13T04:17:56.282Z,15.90
2018-12-13T04:20:25.224Z,16.23
2018-12-13T04:22:53.696Z,15.08
2018-12-13T04:25:22.200Z,16.05
2018-12-13T04:27:50.637Z,15.23
2018-12-13T04:30:19.214Z,17.48
2018-12-13T04:32:47.929Z,17.73
2018-12-13T04:35:16.388Z,14.35
2018-12-13T04:37:44.928Z,15.93
2018-12-13T04:40:13.554Z,15.50
2018-12-13T04:42:42.043Z,14.80
2018-12-13T04:45:10.481Z,14.58
2018-12-13T04:47:39.296Z,15.10
2018-12-13T04:50:08.661Z,13.85
2018-12-13T04:52:40.134Z,15.48
2018-12-13T04:55:09.449Z,15.03
2018-12-13T04:57:38.005Z,15.28
2018-12-13T05:00:07.723Z,15.18
2018-12-13T05:02:36.715Z,15.32
2018-12-13T05:05:05.796Z,17.02
2018-12-13T05:07:34.251Z,14.83
2018-12-13T05:10:03.569Z,14.73
2018-12-13T05:12:32.062Z,14.47
2018-12-13T05:15:00.629Z,17.60
2018-12-13T05:17:30.033Z,15.65
2018-12-13T05:19:58.529Z,14.25
2018-12-13T05:22:27.293Z,14.45
2018-12-13T05:24:55.827Z,14.13
2018-12-13T05:27:24.590Z,15.43
2018-12-13T05:29:53.414Z,15.38
2018-12-13T05:32:21.842Z,15.05
2018-12-13T05:34:50.328Z,14.58
2018-12-13T05:37:18.770Z,16.48
2018-12-13T05:39:47.193Z,15.53
2018-12-13T05:42:16.990Z,16.30
2018-12-13T05:44:45.743Z,17.35
2018-12-13T05:47:14.169Z,15.28
2018-12-13T05:49:42.564Z,15.40
2018-12-13T05:52:11.379Z,16.12
2018-12-13T05:54:39.750Z,17.82
2018-12-13T05:57:08.300Z,19.37
2018-12-13T05:59:36.756Z,17.35
2018-12-13T06:02:05.518Z,17.35
2018-12-13T06:04:35.310Z,18.23
2018-12-13T06:07:04.488Z,19.42
2018-12-13T06:09:33.523Z,19.82
2018-12-13T06:12:03.395Z,17.98
2018-12-13T06:14:32.069Z,21.97
2018-12-13T06:17:01.061Z,18.15
2018-12-13T06:19:30.077Z,17.73
2018-12-13T06:21:58.615Z,17.90
2018-12-13T06:24:27.477Z,19.12
2018-12-13T06:26:55.894Z,22.25
2018-12-13T06:29:24.446Z,19.12
2018-12-13T06:31:53.494Z,17.77
2018-12-13T06:34:22.700Z,19.45
2018-12-13T06:36:51.669Z,19.27
2018-12-13T06:39:21.090Z,22.20
2018-12-13T06:41:49.723Z,20.02
2018-12-13T06:44:18.445Z,19.77
2018-12-13T06:46:46.849Z,19.48
2018-12-13T06:49:15.268Z,21.12
2018-12-13T06:51:43.595Z,19.52
2018-12-13T06:54:12.420Z,18.92
2018-12-13T06:56:40.924Z,18.70
2018-12-13T06:59:09.416Z,19.50
2018-12-13T07:01:37.836Z,20.62
2018-12-13T07:04:06.295Z,20.75
2018-12-13T07:06:34.819Z,20.20
2018-12-13T07:09:05.301Z,19.77
2018-12-13T07:11:33.706Z,20.43
2018-12-13T07:14:02.275Z,19.37
2018-12-13T07:16:31.225Z,21.48
2018-12-13T07:19:03.904Z,23.00
2018-12-13T07:21:32.330Z,22.27
2018-12-13T07:24:00.906Z,20.72
2018-12-13T07:26:29.324Z,19.45
2018-12-13T07:28:58.112Z,21.82
2018-12-13T07:31:26.648Z,24.32
2018-12-13T07:33:55.152Z,20.43
2018-12-13T07:36:23.909Z,21.52
2018-12-13T07:38:52.346Z,19.95
2018-12-13T07:41:20.778Z,18.70
2018-12-13T07:43:49.183Z,20.50
2018-12-13T07:46:17.630Z,18.05
2018-12-13T07:48:47.276Z,19.70
2018-12-13T07:51:15.768Z,19.67
2018-12-13T07:53:44.082Z,20.23
2018-12-13T07:56:12.474Z,20.25
2018-12-13T07:58:40.906Z,19.10
2018-12-13T08:01:10.023Z,19.85
2018-12-13T08:03:38.496Z,20.40
2018-12-13T08:06:07.440Z,19.85
2018-12-13T08:08:36.469Z,21.62
2018-12-13T08:11:05.224Z,20.68
2018-12-13T08:13:34.124Z,19.52
2018-12-13T08:16:02.570Z,18.62
2018-12-13T08:18:30.929Z,17.90
2018-12-13T08:20:59.375Z,18.07
2018-12-13T08:23:28.241Z,22.60
2018-12-13T08:25:56.885Z,20.48
2018-12-13T08:28:25.333Z,18.85
2018-12-13T08:30:53.834Z,19.57
2018-12-13T08:33:22.344Z,19.02
2018-12-13T08:35:50.915Z,17.27
2018-12-13T08:38:19.781Z,19.80
2018-12-13T08:40:48.483Z,18.98
2018-12-13T08:43:16.881Z,18.62
2018-12-13T08:45:45.177Z,20.10
2018-12-13T08:48:14.238Z,18.32
2018-12-13T08:50:42.645Z,18.80
2018-12-13T08:53:11.092Z,20.27
2018-12-13T08:55:39.896Z,17.70
2018-12-13T08:58:08.656Z,19.23
2018-12-13T09:00:37.994Z,18.90
2018-12-13T09:03:06.750Z,19.70
2018-12-13T09:05:35.183Z,17.42
2018-12-13T09:08:04.015Z,19.75
2018-12-13T09:10:32.477Z,16.75
2018-12-13T09:13:00.918Z,18.73
2018-12-13T09:15:29.537Z,17.20
2018-12-13T09:17:58.186Z,17.15
2018-12-13T09:20:26.618Z,19.12
2018-12-13T09:22:55.064Z,19.87
2018-12-13T09:25:23.472Z,19.20
2018-12-13T09:27:52.350Z,17.40
2018-12-13T09:30:20.739Z,17.42
2018-12-13T09:32:49.607Z,18.02
2018-12-13T09:35:18.475Z,18.40
2018-12-13T09:37:47.616Z,17.95
2018-12-13T09:40:16.685Z,18.40
2018-12-13T09:42:45.549Z,18.02
2018-12-13T09:45:14.306Z,18.37
2018-12-13T09:47:43.404Z,17.07
2018-12-13T09:50:12.430Z,17.05
2018-12-13T09:52:41.091Z,16.23
2018-12-13T09:55:09.803Z,17.70
2018-12-13T09:57:38.751Z,19.30
2018-12-13T10:00:09.281Z,16.27
2018-12-13T10:02:37.703Z,15.55
2018-12-13T10:05:06.740Z,15.88
2018-12-13T10:07:35.598Z,16.30
2018-12-13T10:10:05.106Z,17.02
2018-12-13T10:12:33.593Z,16.37
2018-12-13T10:15:02.580Z,15.75
2018-12-13T10:17:31.118Z,16.12
2018-12-13T10:19:59.565Z,15.65
2018-12-13T10:22:28.713Z,15.93
2018-12-13T10:24:57.512Z,13.93
2018-12-13T10:27:25.850Z,17.15
2018-12-13T10:29:54.452Z,15.38
2018-12-13T10:32:22.906Z,15.70
2018-12-13T10:34:51.245Z,14.40
2018-12-13T10:37:19.904Z,14.10
2018-12-13T10:39:48.888Z,14.87
2018-12-13T10:42:17.614Z,14.70
2018-12-13T10:44:46.379Z,14.45
2018-12-13T10:47:15.330Z,14.20
2018-12-13T10:49:43.754Z,14.53
2018-12-13T10:52:12.926Z,14.68
2018-12-13T10:54:42.350Z,14.20
2018-12-13T10:57:11.038Z,13.85
2018-12-13T10:59:39.745Z,15.35
2018-12-13T11:02:14.250Z,14.25
2018-12-13T11:04:43.422Z,15.38
2018-12-13T11:07:12.055Z,13.95
2018-12-13T11:09:40.428Z,13.00
2018-12-13T11:12:09.087Z,15.63
2018-12-13T11:14:37.562Z,14.65
2018-12-13T11:17:06.048Z,13.70
2018-12-13T11:19:34.537Z,13.48
2018-12-13T11:22:03.042Z,13.10
2018-12-13T11:24:31.679Z,14.28
2018-12-13T11:29:14.587Z,13.48
2018-12-13T11:31:44.588Z,12.25
2018-12-13T11:34:13.075Z,14.65
2018-12-13T11:36:41.994Z,13.00
2018-12-13T11:39:10.735Z,13.65
2018-12-13T11:41:39.127Z,12.33
2018-12-13T11:44:07.649Z,13.58
2018-12-13T11:46:36.213Z,12.65
2018-12-13T11:49:04.711Z,12.90
2018-12-13T11:51:33.130Z,13.15
2018-12-13T11:54:03.839Z,12.68
2018-12-13T11:56:32.405Z,13.10
2018-12-13T11:59:01.133Z,12.88
2018-12-13T12:01:30.341Z,12.75
2018-12-13T12:03:59.471Z,12.60
2018-12-13T12:06:29.013Z,12.20
2018-12-13T12:08:57.640Z,12.03
2018-12-13T12:11:26.166Z,11.33
2018-12-13T12:13:54.973Z,11.85
2018-12-13T12:16:23.829Z,11.12
2018-12-13T12:18:53.379Z,10.85
2018-12-13T12:21:21.851Z,11.10
2018-12-13T12:23:50.709Z,11.40
2018-12-13T12:26:19.746Z,11.85
2018-12-13T12:28:48.399Z,12.10
2018-12-13T12:31:16.877Z,11.88
2018-12-13T12:33:45.401Z,11.95
2018-12-13T12:36:14.288Z,12.10
2018-12-13T12:38:42.968Z,12.70
2018-12-13T12:41:11.564Z,12.82
2018-12-13T12:43:40.286Z,14.10
2018-12-13T12:46:09.168Z,13.50
2018-12-13T12:48:37.841Z,12.93
2018-12-13T12:51:06.734Z,12.98
2018-12-13T12:53:35.526Z,13.35
2018-12-13T12:56:03.937Z,13.88
2018-12-13T12:58:32.416Z,12.78
2018-12-13T13:01:07.448Z,13.13
2018-12-13T13:03:35.916Z,14.00
2018-12-13T13:06:04.440Z,13.85
2018-12-13T13:08:33.152Z,14.43
2018-12-13T13:11:02.280Z,16.23
2018-12-13T13:13:30.936Z,14.15
2018-12-13T13:15:59.723Z,15.08
2018-12-13T13:18:28.209Z,16.55
2018-12-13T13:20:57.185Z,15.13
2018-12-13T13:23:26.733Z,14.75
2018-12-13T13:25:55.268Z,15.72
2018-12-13T13:28:23.997Z,15.83
2018-12-13T13:30:52.523Z,15.55
2018-12-13T13:33:21.006Z,16.85
2018-12-13T13:35:49.632Z,17.10
2018-12-13T13:38:18.081Z,16.77
2018-12-13T13:40:46.586Z,16.70
2018-12-13T13:43:15.794Z,17.77
2018-12-13T13:45:44.858Z,16.00
2018-12-13T13:48:13.562Z,17.27
2018-12-13T13:50:41.983Z,17.75
2018-12-13T13:53:11.268Z,18.85
2018-12-13T13:55:40.655Z,17.12
2018-12-13T13:58:09.661Z,16.77
2018-12-13T14:00:39.053Z,16.80
2018-12-13T14:03:07.872Z,17.25
2018-12-13T14:05:36.889Z,18.25
2018-12-13T14:08:05.509Z,18.92
2018-12-13T14:10:34.962Z,18.70
2018-12-13T14:13:03.412Z,18.07
2018-12-13T14:15:32.898Z,18.45
2018-12-13T14:18:01.568Z,17.87
2018-12-13T14:20:31.155Z,18.05
2018-12-13T14:23:00.009Z,18.92
2018-12-13T14:25:28.927Z,17.48
2018-12-13T14:27:57.917Z,16.55
2018-12-13T14:30:26.577Z,17.57
2018-12-13T14:32:55.675Z,15.98
2018-12-13T14:35:24.340Z,17.95
2018-12-13T14:37:53.296Z,18.65
2018-12-13T14:40:22.050Z,17.35
2018-12-13T14:42:52.006Z,15.95
2018-12-13T14:45:20.420Z,17.62
2018-12-13T14:47:49.384Z,19.15
2018-12-13T14:50:17.929Z,17.17
2018-12-13T14:52:46.703Z,16.60
2018-12-13T14:55:19.176Z,16.00
2018-12-13T14:57:47.981Z,18.17
2018-12-13T15:00:16.701Z,15.58
2018-12-13T15:02:46.178Z,17.27
2018-12-13T15:05:15.841Z,19.10
2018-12-13T15:07:44.333Z,16.05
2018-12-13T15:10:17.847Z,15.75
2018-12-13T15:12:47.219Z,16.55
2018-12-13T15:15:16.319Z,15.38
2018-12-13T15:17:45.087Z,16.50
2018-12-13T15:20:14.007Z,16.73
2018-12-13T15:22:43.379Z,17.62
2018-12-13T15:25:12.452Z,17.17
2018-12-13T15:27:40.869Z,16.67
2018-12-13T15:30:09.882Z,16.90
2018-12-13T15:32:39.512Z,17.00
2018-12-13T15:35:08.654Z,15.90
2018-12-13T15:37:38.281Z,16.12
2018-12-13T15:40:07.362Z,17.40
2018-12-13T15:42:36.321Z,16.45
2018-12-13T15:45:07.183Z,18.10
2018-12-13T15:47:35.774Z,17.50
2018-12-13T15:50:05.221Z,17.15
2018-12-13T15:52:33.980Z,16.40
2018-12-13T15:55:03.439Z,15.72
2018-12-13T15:57:32.312Z,16.23
2018-12-13T16:00:01.497Z,15.03
2018-12-13T16:02:30.134Z,16.80
2018-12-13T16:04:58.962Z,19.82
2018-12-13T16:07:27.679Z,16.50
2018-12-13T16:10:03.649Z,16.70
2018-12-13T16:12:28.024Z,16.93
2018-12-13T16:14:56.544Z,16.35
2018-12-13T16:17:25.617Z,15.88
2018-12-13T16:19:54.149Z,13.88
2018-12-13T16:22:22.915Z,15.05
2018-12-13T16:24:51.621Z,15.93
2018-12-13T16:27:20.137Z,14.35
2018-12-13T16:29:49.005Z,15.18
2018-12-13T16:32:17.929Z,16.67
2018-12-13T16:34:46.356Z,16.15
2018-12-13T16:37:14.898Z,17.27
2018-12-13T16:39:43.605Z,14.25
2018-12-13T16:42:12.294Z,13.45
2018-12-13T16:44:40.759Z,15.60
2018-12-13T16:47:09.805Z,14.87
2018-12-13T16:49:38.333Z,15.50
2018-12-13T16:52:06.779Z,14.43
2018-12-13T16:54:35.851Z,16.77
2018-12-13T16:57:05.087Z,13.65
2018-12-13T16:59:34.064Z,15.05
2018-12-13T17:02:02.733Z,16.57
2018-12-13T17:04:31.406Z,15.15
2018-12-13T17:07:00.145Z,13.20
2018-12-13T17:09:29.011Z,13.53
2018-12-13T17:11:57.494Z,13.68
2018-12-13T17:14:26.010Z,12.88
2018-12-13T17:16:54.495Z,11.48
2018-12-13T17:19:22.976Z,12.18
2018-12-13T17:21:51.352Z,12.20
2018-12-13T17:24:19.807Z,11.68
2018-12-13T17:26:48.280Z,11.80
2018-12-13T17:29:16.720Z,11.48
2018-12-13T17:31:45.697Z,11.93
2018-12-13T17:34:14.437Z,11.00
2018-12-13T17:36:43.386Z,9.78
2018-12-13T17:39:12.076Z,11.05
2018-12-13T17:41:40.750Z,12.55
2018-12-13T17:44:09.162Z,10.15
2018-12-13T17:46:37.611Z,9.70
2018-12-13T17:49:06.144Z,9.78
2018-12-13T17:51:34.554Z,10.70
2018-12-13T17:54:04.147Z,10.13
2018-12-13T17:56:32.649Z,10.90
2018-12-13T17:59:01.128Z,10.20
2018-12-13T18:01:29.542Z,10.50
2018-12-13T18:03:58.826Z,11.78
2018-12-13T18:06:27.571Z,11.10
2018-12-13T18:08:56.016Z,11.73
2018-12-13T18:11:24.481Z,12.73
2018-12-13T18:13:52.986Z,10.95
2018-12-13T18:16:21.786Z,11.28
2018-12-13T18:18:50.236Z,11.50
2018-12-13T18:21:19.100Z,13.48
2018-12-13T18:23:47.565Z,13.43
2018-12-13T18:26:16.308Z,12.65
2018-12-13T18:28:44.779Z,15.35
2018-12-13T18:31:13.431Z,14.25
2018-12-13T18:33:41.842Z,14.03
2018-12-13T18:36:11.542Z,14.07
2018-12-13T18:38:40.008Z,12.50
2018-12-13T18:41:08.866Z,12.23
2018-12-13T18:43:37.515Z,12.55
2018-12-13T18:46:05.937Z,12.68
2018-12-13T18:48:34.989Z,10.93
2018-12-13T18:51:04.055Z,11.93
2018-12-13T18:53:32.490Z,11.88
2018-12-13T18:56:02.300Z,11.55
2018-12-13T18:58:30.968Z,12.33
2018-12-13T19:00:59.493Z,12.25
2018-12-13T19:03:29.503Z,11.22
2018-12-13T19:05:57.934Z,12.30
2018-12-13T19:08:26.428Z,13.15
2018-12-13T19:10:55.096Z,10.63
2018-12-13T19:13:23.830Z,12.68
2018-12-13T19:15:52.982Z,11.35
2018-12-13T19:18:22.938Z,11.15
2018-12-13T19:20:51.409Z,12.53
2018-12-13T19:23:20.089Z,12.30
2018-12-13T19:25:48.519Z,11.10
2018-12-13T19:28:17.002Z,10.75
2018-12-13T19:30:45.856Z,10.23
2018-12-13T19:33:14.232Z,10.75
2018-12-13T19:35:42.772Z,10.78
2018-12-13T19:38:11.873Z,10.40
2018-12-13T19:40:40.305Z,11.70
2018-12-13T19:43:08.827Z,10.68
2018-12-13T19:45:37.508Z,12.07
2018-12-13T19:48:05.918Z,11.68
2018-12-13T19:50:34.362Z,11.25
2018-12-13T19:53:03.752Z,12.05
2018-12-13T19:55:32.240Z,11.63
2018-12-13T19:58:00.883Z,11.38
2018-12-13T20:00:29.597Z,10.58
2018-12-13T20:02:58.218Z,10.80
2018-12-13T20:05:27.661Z,10.68
2018-12-13T20:07:56.117Z,10.50
2018-12-13T20:10:25.165Z,10.35
2018-12-13T20:12:54.270Z,11.00
2018-12-13T20:15:24.256Z,10.90
2018-12-13T20:17:53.541Z,9.83
2018-12-13T20:20:22.678Z,10.10
2018-12-13T20:22:51.309Z,11.75
2018-12-13T20:25:19.843Z,10.98
2018-12-13T20:27:50.494Z,10.95
2018-12-13T20:30:18.994Z,11.22
2018-12-13T20:32:48.437Z,9.88
2018-12-13T20:35:17.463Z,10.08
2018-12-13T20:37:46.391Z,11.55
2018-12-13T20:40:14.836Z,12.10
2018-12-13T20:42:43.328Z,10.08
2018-12-13T20:45:12.628Z,10.50
2018-12-13T20:47:42.524Z,11.12
2018-12-13T20:50:10.983Z,10.98
2018-12-13T20:52:39.637Z,11.15
2018-12-13T20:55:08.331Z,11.63
2018-12-13T20:57:36.855Z,11.30
2018-12-13T21:00:13.837Z,9.58
2018-12-13T21:02:42.395Z,10.23
2018-12-13T21:05:10.933Z,10.50
2018-12-13T21:07:40.579Z,10.50
2018-12-13T21:10:10.613Z,11.33
2018-12-13T21:12:42.551Z,11.15
2018-12-13T21:15:11.467Z,10.50
2018-12-13T21:17:40.419Z,11.93
2018-12-13T21:20:09.997Z,9.93
2018-12-13T21:22:38.839Z,11.15
2018-12-13T21:25:07.786Z,11.63
2018-12-13T21:27:38.569Z,10.63
2018-12-13T21:30:07.830Z,11.40
2018-12-13T21:32:36.526Z,11.93
2018-12-13T21:35:06.738Z,10.58
2018-12-13T21:37:35.668Z,11.38
2018-12-13T21:40:04.760Z,11.12
2018-12-13T21:42:33.407Z,11.95
2018-12-13T21:45:02.654Z,12.70
2018-12-13T21:47:31.310Z,12.10
2018-12-13T21:49:59.737Z,11.68
2018-12-13T21:52:28.385Z,11.88
2018-12-13T21:54:58.448Z,11.33
2018-12-13T21:57:27.074Z,11.90
2018-12-13T21:59:56.198Z,11.83
2018-12-13T22:02:25.292Z,12.18
2018-12-13T22:04:53.814Z,11.20
2018-12-13T22:07:22.443Z,11.55
2018-12-13T22:09:51.343Z,11.50
2018-12-13T22:12:21.160Z,10.38
2018-12-13T22:14:49.918Z,10.48
2018-12-13T22:17:19.841Z,11.78
2018-12-13T22:19:48.382Z,10.25
2018-12-13T22:22:16.844Z,12.53
2018-12-13T22:24:46.126Z,11.15
2018-12-13T22:27:14.494Z,11.50
2018-12-13T22:29:43.222Z,12.68
2018-12-13T22:32:12.419Z,13.40
2018-12-13T22:34:41.453Z,12.03
2018-12-13T22:37:10.643Z,11.68
2018-12-13T22:39:40.079Z,12.65
2018-12-13T22:42:10.334Z,10.85
2018-12-13T22:44:39.235Z,11.70
2018-12-13T22:47:07.707Z,12.05
2018-12-13T22:49:36.151Z,12.65
2018-12-13T22:52:05.067Z,12.23
2018-12-13T22:54:34.240Z,13.03
2018-12-13T22:57:03.000Z,12.07
2018-12-13T22:59:31.898Z,13.55
2018-12-13T23:02:00.750Z,13.48
2018-12-13T23:04:29.975Z,11.40
2018-12-13T23:06:58.897Z,12.93
2018-12-13T23:09:27.439Z,12.00
2018-12-13T23:11:57.217Z,12.23
2018-12-13T23:14:26.105Z,12.43
2018-12-13T23:16:54.731Z,13.60
2018-12-13T23:19:23.432Z,14.05
2018-12-13T23:21:53.119Z,12.90
2018-12-13T23:24:21.734Z,14.18
2018-12-13T23:26:50.238Z,14.83
2018-12-13T23:29:20.117Z,12.40
2018-12-13T23:31:48.877Z,12.63
2018-12-13T23:34:17.723Z,12.88
2018-12-13T23:36:46.457Z,14.18
2018-12-13T23:39:14.856Z,13.70
2018-12-13T23:41:43.257Z,12.40
2018-12-13T23:44:11.777Z,14.70
2018-12-13T23:46:41.074Z,13.60
2018-12-13T23:49:09.530Z,13.72
2018-12-13T23:51:38.376Z,13.40
2018-12-13T23:54:07.179Z,13.80
2018-12-13T23:56:35.624Z,14.50
2018-12-13T23:59:04.348Z,14.07
